createdAt,value
2023-12-17T00:00:00.975Z,9.8
2023-12-17T00:02:00.818Z,9.2
2023-12-17T00:04:00.909Z,9.8
2023-12-17T00:06:00.972Z,9.6
2023-12-17T00:08:00.833Z,9.1
2023-12-17T00:10:00.864Z,9.2
2023-12-17T00:12:00.918Z,7.9
2023-12-17T00:14:00.887Z,7.1
2023-12-17T00:16:00.965Z,7.3
2023-12-17T00:18:01.084Z,8.4
2023-12-17T00:20:00.947Z,6.1
2023-12-17T00:22:00.895Z,7.5
2023-12-17T00:24:00.973Z,5.6
2023-12-17T00:26:01.468Z,7.9
2023-12-17T00:28:00.916Z,7.9
2023-12-17T00:30:01.066Z,7.3
2023-12-17T00:32:01.645Z,8.1
2023-12-17T00:34:00.922Z,7.4
2023-12-17T00:36:00.949Z,9.0
2023-12-17T00:38:00.912Z,7.7
2023-12-17T00:40:00.881Z,6.3
2023-12-17T00:42:00.966Z,5.4
2023-12-17T00:44:00.892Z,6.2
2023-12-17T00:46:00.877Z,7.6
2023-12-17T00:48:01.104Z,5.0
2023-12-17T00:50:00.898Z,6.1
2023-12-17T00:52:00.845Z,5.2
2023-12-17T00:54:00.851Z,5.0
2023-12-17T00:56:00.793Z,5.1
2023-12-17T00:58:00.851Z,6.4
2023-12-17T01:00:01.158Z,6.6
2023-12-17T01:02:00.794Z,7.0
2023-12-17T01:04:00.938Z,7.2
2023-12-17T01:06:01.209Z,6.9
2023-12-17T01:08:00.909Z,7.1
2023-12-17T01:10:00.772Z,7.1
2023-12-17T01:12:00.878Z,6.2
2023-12-17T01:14:00.896Z,7.8
2023-12-17T01:16:01.036Z,7.0
2023-12-17T01:18:00.985Z,6.2
2023-12-17T01:20:01.004Z,5.8
2023-12-17T01:22:01.494Z,7.6
2023-12-17T01:24:01.424Z,6.8
2023-12-17T01:26:00.773Z,8.5
2023-12-17T01:28:00.781Z,6.7
2023-12-17T01:30:01.125Z,6.7
2023-12-17T01:32:00.946Z,8.5
2023-12-17T01:34:00.936Z,7.6
2023-12-17T01:36:00.805Z,7.8
2023-12-17T01:38:00.830Z,8.5
2023-12-17T01:40:00.861Z,6.4
2023-12-17T01:42:00.962Z,7.1
2023-12-17T01:44:00.766Z,8.5
2023-12-17T01:46:02.359Z,6.1
2023-12-17T01:48:01.735Z,6.2
2023-12-17T01:50:00.893Z,7.0
2023-12-17T01:52:00.904Z,6.8
2023-12-17T01:54:01.074Z,6.2
2023-12-17T01:56:01.287Z,6.1
2023-12-17T01:58:01.993Z,6.0
2023-12-17T02:00:01.894Z,6.2
2023-12-17T02:02:01.610Z,6.9
2023-12-17T02:04:01.395Z,6.0
2023-12-17T02:06:00.946Z,5.9
2023-12-17T02:08:01.682Z,6.1
2023-12-17T02:10:00.771Z,7.0
2023-12-17T02:12:01.013Z,6.0
2023-12-17T02:14:00.766Z,4.9
2023-12-17T02:16:01.658Z,5.0
2023-12-17T02:18:00.983Z,4.4
2023-12-17T02:20:00.761Z,4.6
2023-12-17T02:22:01.006Z,6.2
2023-12-17T02:24:02.016Z,4.7
2023-12-17T02:26:00.761Z,5.2
2023-12-17T02:28:00.788Z,4.9
2023-12-17T02:30:01.129Z,4.9
2023-12-17T02:32:00.939Z,5.9
2023-12-17T02:34:01.035Z,6.4
2023-12-17T02:36:00.914Z,5.1
2023-12-17T02:38:00.806Z,5.3
2023-12-17T02:40:00.922Z,4.6
2023-12-17T02:42:01.186Z,6.0
2023-12-17T02:44:00.802Z,5.4
2023-12-17T02:46:00.877Z,4.7
2023-12-17T02:48:01.028Z,8.7
2023-12-17T02:50:01.233Z,5.8
2023-12-17T02:52:00.997Z,5.6
2023-12-17T02:54:01.007Z,4.9
2023-12-17T02:56:00.776Z,6.8
2023-12-17T02:58:03.399Z,4.7
2023-12-17T03:00:00.903Z,5.7
2023-12-17T03:02:00.810Z,6.6
2023-12-17T03:04:02.588Z,4.8
2023-12-17T03:06:00.877Z,4.5
2023-12-17T03:08:00.800Z,5.2
2023-12-17T03:10:00.998Z,4.1
2023-12-17T03:12:02.208Z,4.8
2023-12-17T03:14:00.881Z,4.4
2023-12-17T03:16:00.822Z,4.0
2023-12-17T03:18:00.863Z,6.2
2023-12-17T03:20:00.925Z,4.5
2023-12-17T03:22:01.009Z,4.1
2023-12-17T03:24:00.828Z,4.4
2023-12-17T03:26:02.168Z,4.2
2023-12-17T03:28:00.785Z,5.9
2023-12-17T03:30:01.122Z,4.0
2023-12-17T03:32:00.830Z,4.9
2023-12-17T03:34:01.337Z,4.8
2023-12-17T03:36:00.829Z,4.5
2023-12-17T03:38:00.791Z,4.5
2023-12-17T03:40:00.773Z,5.5
2023-12-17T03:42:00.956Z,5.6
2023-12-17T03:44:00.810Z,4.7
2023-12-17T03:46:00.919Z,4.8
2023-12-17T03:48:01.945Z,6.1
2023-12-17T03:50:00.768Z,5.5
2023-12-17T03:52:02.294Z,5.5
2023-12-17T03:54:00.985Z,6.0
2023-12-17T03:56:00.969Z,6.9
2023-12-17T03:58:00.767Z,5.9
2023-12-17T04:00:01.465Z,5.4
2023-12-17T04:02:00.880Z,5.6
2023-12-17T04:04:01.264Z,5.7
2023-12-17T04:06:04.323Z,6.0
2023-12-17T04:08:00.779Z,5.4
2023-12-17T04:10:01.596Z,5.2
2023-12-17T04:12:00.886Z,5.7
2023-12-17T04:14:00.991Z,5.2
2023-12-17T04:16:00.842Z,5.9
2023-12-17T04:18:00.921Z,5.6
2023-12-17T04:20:00.885Z,6.0
2023-12-17T04:22:00.806Z,4.9
2023-12-17T04:24:00.880Z,5.1
2023-12-17T04:26:00.821Z,5.7
2023-12-17T04:28:01.331Z,6.6
2023-12-17T04:30:00.990Z,6.0
2023-12-17T04:32:00.886Z,5.8
2023-12-17T04:34:01.042Z,4.4
2023-12-17T04:36:00.828Z,5.1
2023-12-17T04:38:00.809Z,4.9
2023-12-17T04:40:01.084Z,5.1
2023-12-17T04:42:00.795Z,4.5
2023-12-17T04:44:00.796Z,4.2
2023-12-17T04:46:01.018Z,4.6
2023-12-17T04:48:00.886Z,4.7
2023-12-17T04:50:00.991Z,4.7
2023-12-17T04:52:01.031Z,4.5
2023-12-17T04:54:00.947Z,4.8
2023-12-17T04:56:01.121Z,5.3
2023-12-17T04:58:00.983Z,5.1
2023-12-17T05:00:01.044Z,4.8
2023-12-17T05:02:00.779Z,5.1
2023-12-17T05:04:01.029Z,5.6
2023-12-17T05:06:00.913Z,5.6
2023-12-17T05:08:00.950Z,5.2
2023-12-17T05:10:00.980Z,5.1
2023-12-17T05:12:00.854Z,5.7
2023-12-17T05:14:00.992Z,5.6
2023-12-17T05:16:00.943Z,14.1
2023-12-17T05:18:02.158Z,9.0
2023-12-17T05:20:00.794Z,9.0
2023-12-17T05:22:00.766Z,6.9
2023-12-17T05:24:00.829Z,5.2
2023-12-17T05:26:00.782Z,5.5
2023-12-17T05:28:00.805Z,6.2
2023-12-17T05:30:00.817Z,5.5
2023-12-17T05:32:00.955Z,7.3
2023-12-17T05:34:00.834Z,6.6
2023-12-17T05:36:01.044Z,9.4
2023-12-17T05:38:00.977Z,6.9
2023-12-17T05:40:01.372Z,7.3
2023-12-17T05:42:00.871Z,6.0
2023-12-17T05:44:00.839Z,6.7
2023-12-17T05:46:06.171Z,6.7
2023-12-17T05:48:01.004Z,6.0
2023-12-17T05:50:01.191Z,5.9
2023-12-17T05:52:01.183Z,6.5
2023-12-17T05:54:00.810Z,6.6
2023-12-17T05:56:00.770Z,5.2
2023-12-17T05:58:00.798Z,5.7
2023-12-17T06:00:01.314Z,5.5
2023-12-17T06:02:01.097Z,6.4
2023-12-17T06:04:01.267Z,6.1
2023-12-17T06:06:00.888Z,5.0
2023-12-17T06:08:00.805Z,5.4
2023-12-17T06:10:00.883Z,5.0
2023-12-17T06:12:00.989Z,6.1
2023-12-17T06:14:01.998Z,5.6
2023-12-17T06:16:03.143Z,6.3
2023-12-17T06:18:01.085Z,6.5
2023-12-17T06:20:01.948Z,8.2
2023-12-17T06:22:00.822Z,6.1
2023-12-17T06:24:00.789Z,7.5
2023-12-17T06:26:00.982Z,7.1
2023-12-17T06:28:00.997Z,6.9
2023-12-17T06:30:01.645Z,8.7
2023-12-17T06:32:00.948Z,8.4
2023-12-17T06:34:00.902Z,10.7
2023-12-17T06:36:00.822Z,13.1
2023-12-17T06:38:00.780Z,11.2
2023-12-17T06:40:01.082Z,13.3
2023-12-17T06:42:00.947Z,11.1
2023-12-17T06:44:01.126Z,9.8
2023-12-17T06:46:00.787Z,9.5
2023-12-17T06:48:01.131Z,7.2
2023-12-17T06:50:01.106Z,11.8
2023-12-17T06:52:01.226Z,8.6
2023-12-17T06:54:00.778Z,10.7
2023-12-17T06:56:00.917Z,13.1
2023-12-17T06:58:00.798Z,14.8
2023-12-17T07:00:01.419Z,13.5
2023-12-17T07:02:01.009Z,17.1
2023-12-17T07:04:00.855Z,16.2
2023-12-17T07:06:00.862Z,13.4
2023-12-17T07:08:01.045Z,13.0
2023-12-17T07:10:00.814Z,12.7
2023-12-17T07:12:01.082Z,9.1
2023-12-17T07:14:00.867Z,12.3
2023-12-17T07:16:00.813Z,18.4
2023-12-17T07:18:00.940Z,15.1
2023-12-17T07:20:01.019Z,10.2
2023-12-17T07:22:00.924Z,13.3
2023-12-17T07:24:00.831Z,21.0
2023-12-17T07:26:00.831Z,16.5
2023-12-17T07:28:00.779Z,13.7
2023-12-17T07:30:00.821Z,12.3
2023-12-17T07:32:01.005Z,8.9
2023-12-17T07:34:00.999Z,12.0
2023-12-17T07:36:00.836Z,8.9
2023-12-17T07:38:00.781Z,8.9
2023-12-17T07:40:00.924Z,13.7
2023-12-17T07:42:00.828Z,16.7
2023-12-17T07:44:00.843Z,14.0
2023-12-17T07:46:00.795Z,9.3
2023-12-17T07:48:01.273Z,12.0
2023-12-17T07:50:01.106Z,9.1
2023-12-17T07:52:00.930Z,9.8
2023-12-17T07:54:01.172Z,8.9
2023-12-17T07:56:00.821Z,8.7
2023-12-17T07:58:00.776Z,10.8
2023-12-17T08:00:00.948Z,10.3
2023-12-17T08:02:01.266Z,8.4
2023-12-17T08:04:01.165Z,9.3
2023-12-17T08:06:00.849Z,8.9
2023-12-17T08:08:01.454Z,9.7
2023-12-17T08:10:00.981Z,13.6
2023-12-17T08:12:01.067Z,10.0
2023-12-17T08:14:00.974Z,20.1
2023-12-17T08:16:00.943Z,13.9
2023-12-17T08:18:00.958Z,14.9
2023-12-17T08:20:00.842Z,17.7
2023-12-17T08:22:00.898Z,10.5
2023-12-17T08:24:00.846Z,11.9
2023-12-17T08:26:00.825Z,13.3
2023-12-17T08:28:00.816Z,12.3
2023-12-17T08:30:00.883Z,8.5
2023-12-17T08:32:00.987Z,17.0
2023-12-17T08:34:00.958Z,13.9
2023-12-17T08:36:00.827Z,7.1
2023-12-17T08:38:00.953Z,8.4
2023-12-17T08:40:01.220Z,9.9
2023-12-17T08:42:01.044Z,7.8
2023-12-17T08:44:00.818Z,7.4
2023-12-17T08:46:00.905Z,8.7
2023-12-17T08:48:01.632Z,7.2
2023-12-17T08:50:01.355Z,8.0
2023-12-17T08:52:00.817Z,8.6
2023-12-17T08:54:00.857Z,10.2
2023-12-17T08:56:00.827Z,6.4
2023-12-17T08:58:00.898Z,8.1
2023-12-17T09:00:01.023Z,9.4
2023-12-17T09:02:00.793Z,10.5
2023-12-17T09:04:01.010Z,12.9
2023-12-17T09:06:00.969Z,8.7
2023-12-17T09:08:00.824Z,10.3
2023-12-17T09:10:01.131Z,10.9
2023-12-17T09:12:00.866Z,18.2
2023-12-17T09:14:00.830Z,12.3
2023-12-17T09:16:00.964Z,11.6
2023-12-17T09:18:01.001Z,15.2
2023-12-17T09:20:00.908Z,23.3
2023-12-17T09:22:00.978Z,39.1
2023-12-17T09:24:00.873Z,36.7
2023-12-17T09:26:00.784Z,17.7
2023-12-17T09:28:01.388Z,32.2
2023-12-17T09:30:00.944Z,35.0
2023-12-17T09:32:02.715Z,20.2
2023-12-17T09:34:00.908Z,17.2
2023-12-17T09:36:01.931Z,24.8
2023-12-17T09:38:00.797Z,20.0
2023-12-17T09:40:00.785Z,35.8
2023-12-17T09:42:01.018Z,21.9
2023-12-17T09:44:01.067Z,35.3
2023-12-17T09:46:00.861Z,30.3
2023-12-17T09:48:02.106Z,24.6
2023-12-17T09:50:00.868Z,18.8
2023-12-17T09:52:07.431Z,48.2
2023-12-17T09:54:01.201Z,33.9
2023-12-17T09:56:01.110Z,21.0
2023-12-17T09:58:01.656Z,22.2
2023-12-17T10:00:01.049Z,16.1
2023-12-17T10:02:01.236Z,17.4
2023-12-17T10:04:00.964Z,14.7
2023-12-17T10:06:02.806Z,17.9
2023-12-17T10:08:00.925Z,15.8
2023-12-17T10:10:00.817Z,18.4
2023-12-17T10:12:00.987Z,17.6
2023-12-17T10:14:01.292Z,12.7
2023-12-17T10:16:00.979Z,14.5
2023-12-17T10:18:01.494Z,22.5
2023-12-17T10:20:01.013Z,54.4
2023-12-17T10:22:06.231Z,14.1
2023-12-17T10:24:00.776Z,12.2
2023-12-17T10:26:00.893Z,12.5
2023-12-17T10:28:01.594Z,16.4
2023-12-17T10:30:02.332Z,10.7
2023-12-17T10:32:01.512Z,10.3
2023-12-17T10:34:09.900Z,11.7
2023-12-17T10:36:00.812Z,10.6
2023-12-17T10:38:02.415Z,12.8
2023-12-17T10:40:01.428Z,12.5
2023-12-17T10:42:01.972Z,10.5
2023-12-17T10:44:02.515Z,12.0
2023-12-17T10:46:01.003Z,9.8
2023-12-17T10:48:01.635Z,10.9
2023-12-17T10:50:01.440Z,10.1
2023-12-17T10:52:01.472Z,12.7
2023-12-17T10:54:01.185Z,13.7
2023-12-17T10:56:01.483Z,13.8
2023-12-17T10:58:05.729Z,11.8
2023-12-17T11:00:02.460Z,15.4
2023-12-17T11:02:03.655Z,16.3
2023-12-17T11:04:02.509Z,15.1
2023-12-17T11:06:01.432Z,19.1
2023-12-17T11:08:01.067Z,12.9
2023-12-17T11:10:00.908Z,15.7
2023-12-17T11:12:04.473Z,22.0
2023-12-17T11:14:00.860Z,12.9
2023-12-17T11:16:19.910Z,15.3
2023-12-17T11:18:01.087Z,32.7
2023-12-17T11:20:02.749Z,31.1
2023-12-17T11:22:01.133Z,18.9
2023-12-17T11:24:01.034Z,14.0
2023-12-17T11:26:00.986Z,17.8
2023-12-17T11:28:01.143Z,29.6
2023-12-17T11:30:01.165Z,13.4
2023-12-17T11:32:01.543Z,232.4
2023-12-17T11:34:01.133Z,22.1
2023-12-17T11:36:01.249Z,19.1
2023-12-17T11:38:01.009Z,19.8
2023-12-17T11:40:00.834Z,21.9
2023-12-17T11:42:01.119Z,16.8
2023-12-17T11:44:00.853Z,27.5
2023-12-17T11:46:00.974Z,16.8
2023-12-17T11:48:09.858Z,18.5
2023-12-17T11:50:02.365Z,15.8
2023-12-17T11:52:09.858Z,18.6
2023-12-17T11:54:01.900Z,16.6
2023-12-17T11:56:02.373Z,15.7
2023-12-17T11:58:00.796Z,18.5
2023-12-17T12:00:00.932Z,23.7
2023-12-17T12:02:01.825Z,45.2
2023-12-17T12:04:01.356Z,44.4
2023-12-17T12:06:04.091Z,33.8
2023-12-17T12:08:00.820Z,35.7
2023-12-17T12:10:05.644Z,20.1
2023-12-17T12:12:01.111Z,30.7
2023-12-17T12:14:01.178Z,27.3
2023-12-17T12:16:02.343Z,42.7
2023-12-17T12:18:00.888Z,59.7
2023-12-17T12:20:01.157Z,27.8
2023-12-17T12:22:01.090Z,39.9
2023-12-17T12:24:01.157Z,58.1
2023-12-17T12:26:00.792Z,19.8
2023-12-17T12:28:00.992Z,26.3
2023-12-17T12:30:01.101Z,31.4
2023-12-17T12:32:00.789Z,27.4
2023-12-17T12:34:04.374Z,35.3
2023-12-17T12:36:04.623Z,36.1
2023-12-17T12:38:00.920Z,28.8
2023-12-17T12:40:03.861Z,58.6
2023-12-17T12:42:01.702Z,46.3
2023-12-17T12:44:01.777Z,33.8
2023-12-17T12:46:00.840Z,41.5
2023-12-17T12:48:01.335Z,25.4
2023-12-17T12:50:00.828Z,29.4
2023-12-17T12:52:00.950Z,30.7
2023-12-17T12:54:01.190Z,45.7
2023-12-17T12:56:00.841Z,34.4
2023-12-17T12:58:00.889Z,31.2
2023-12-17T13:00:00.888Z,32.8
2023-12-17T13:02:00.830Z,50.9
2023-12-17T13:04:01.402Z,25.9
2023-12-17T13:06:01.222Z,35.8
2023-12-17T13:08:00.792Z,34.5
2023-12-17T13:10:08.150Z,50.9
2023-12-17T13:12:01.013Z,45.0
2023-12-17T13:14:00.925Z,46.7
2023-12-17T13:16:00.873Z,17.2
2023-12-17T13:18:00.962Z,18.2
2023-12-17T13:20:01.217Z,39.3
2023-12-17T13:22:00.852Z,32.2
2023-12-17T13:24:00.847Z,24.9
2023-12-17T13:26:07.513Z,18.7
2023-12-17T13:28:00.864Z,34.8
2023-12-17T13:30:02.339Z,66.1
2023-12-17T13:32:00.820Z,42.5
2023-12-17T13:34:01.207Z,57.3
2023-12-17T13:36:01.089Z,25.2
2023-12-17T13:38:01.157Z,43.3
2023-12-17T13:40:00.890Z,85.1
2023-12-17T13:42:02.709Z,49.6
2023-12-17T13:44:00.821Z,50.9
2023-12-17T13:46:00.802Z,55.9
2023-12-17T13:48:00.908Z,16.2
2023-12-17T13:50:00.890Z,38.3
2023-12-17T13:52:00.754Z,26.1
2023-12-17T13:54:01.352Z,38.7
2023-12-17T13:56:00.777Z,32.0
2023-12-17T13:58:00.934Z,23.1
2023-12-17T14:00:00.900Z,31.4
2023-12-17T14:02:00.787Z,35.4
2023-12-17T14:04:01.003Z,44.7
2023-12-17T14:06:01.131Z,56.4
2023-12-17T14:08:00.945Z,41.3
2023-12-17T14:10:00.813Z,17.2
2023-12-17T14:12:00.820Z,20.8
2023-12-17T14:14:00.936Z,35.5
2023-12-17T14:16:01.115Z,42.4
2023-12-17T14:18:00.925Z,22.4
2023-12-17T14:20:02.257Z,29.3
2023-12-17T14:22:01.053Z,26.7
2023-12-17T14:24:00.834Z,105.1
2023-12-17T14:26:00.763Z,40.3
2023-12-17T14:28:02.124Z,47.2
2023-12-17T14:30:01.520Z,36.9
2023-12-17T14:32:00.864Z,42.4
2023-12-17T14:34:05.687Z,31.0
2023-12-17T14:36:00.855Z,15.3
2023-12-17T14:38:00.916Z,18.2
2023-12-17T14:40:00.824Z,12.8
2023-12-17T14:42:01.358Z,29.3
2023-12-17T14:44:00.803Z,45.7
2023-12-17T14:46:02.628Z,21.0
2023-12-17T14:48:00.993Z,18.4
2023-12-17T14:50:00.784Z,22.5
2023-12-17T14:52:00.901Z,53.1
2023-12-17T14:54:01.174Z,61.3
2023-12-17T14:56:00.768Z,23.5
2023-12-17T14:58:00.799Z,53.9
2023-12-17T15:00:00.850Z,32.8
2023-12-17T15:02:00.801Z,69.0
2023-12-17T15:04:01.394Z,28.1
2023-12-17T15:06:00.907Z,34.3
2023-12-17T15:08:01.192Z,44.1
2023-12-17T15:10:02.303Z,33.0
2023-12-17T15:12:00.805Z,67.7
2023-12-17T15:14:00.872Z,41.1
2023-12-17T15:16:02.222Z,84.7
2023-12-17T15:18:01.111Z,85.5
2023-12-17T15:20:00.885Z,34.4
2023-12-17T15:22:00.945Z,66.8
2023-12-17T15:24:00.903Z,67.3
2023-12-17T15:26:01.017Z,99.9
2023-12-17T15:28:00.805Z,72.6
2023-12-17T15:30:00.857Z,103.9
2023-12-17T15:32:00.815Z,64.6
2023-12-17T15:34:02.547Z,60.7
2023-12-17T15:36:00.895Z,121.1
2023-12-17T15:38:00.842Z,75.6
2023-12-17T15:40:00.947Z,116.7
2023-12-17T15:42:01.262Z,75.7
2023-12-17T15:44:00.887Z,48.3
2023-12-17T15:46:00.804Z,37.5
2023-12-17T15:48:01.210Z,54.7
2023-12-17T15:50:00.814Z,19.6
2023-12-17T15:52:00.818Z,69.3
2023-12-17T15:54:01.038Z,159.0
2023-12-17T15:56:00.771Z,134.9
2023-12-17T15:58:00.809Z,75.7
2023-12-17T16:00:01.195Z,52.6
2023-12-17T16:02:00.820Z,46.7
2023-12-17T16:04:01.016Z,70.4
2023-12-17T16:06:01.104Z,86.9
2023-12-17T16:08:00.786Z,89.1
2023-12-17T16:10:00.895Z,123.8
2023-12-17T16:12:00.871Z,46.4
2023-12-17T16:14:00.827Z,61.7
2023-12-17T16:16:00.820Z,55.1
2023-12-17T16:18:00.981Z,94.5
2023-12-17T16:20:00.890Z,119.0
2023-12-17T16:22:00.993Z,87.4
2023-12-17T16:24:01.090Z,55.1
2023-12-17T16:26:00.776Z,167.8
2023-12-17T16:28:00.923Z,120.2
2023-12-17T16:30:00.838Z,198.9
2023-12-17T16:32:00.960Z,236.9
2023-12-17T16:34:01.555Z,166.1
2023-12-17T16:36:00.956Z,191.6
2023-12-17T16:38:00.763Z,163.6
2023-12-17T16:40:00.787Z,94.0
2023-12-17T16:42:01.010Z,168.8
2023-12-17T16:44:01.040Z,146.9
2023-12-17T16:46:00.774Z,106.1
2023-12-17T16:48:01.115Z,121.9
2023-12-17T16:50:00.954Z,216.2
2023-12-17T16:52:00.840Z,194.6
2023-12-17T16:54:00.894Z,136.0
2023-12-17T16:56:00.907Z,167.3
2023-12-17T16:58:01.192Z,152.8
2023-12-17T17:00:00.852Z,196.6
2023-12-17T17:02:00.888Z,231.8
2023-12-17T17:04:00.915Z,177.7
2023-12-17T17:06:01.135Z,216.1
2023-12-17T17:08:01.058Z,50.5
2023-12-17T17:10:00.781Z,200.6
2023-12-17T17:12:00.784Z,223.3
2023-12-17T17:14:00.775Z,109.3
2023-12-17T17:16:00.916Z,54.2
2023-12-17T17:18:01.056Z,62.8
2023-12-17T17:20:01.153Z,60.9
2023-12-17T17:22:00.772Z,147.5
2023-12-17T17:24:00.864Z,129.5
2023-12-17T17:26:00.824Z,147.2
2023-12-17T17:28:00.993Z,116.3
2023-12-17T17:30:01.482Z,60.8
2023-12-17T17:32:01.019Z,101.8
2023-12-17T17:34:00.870Z,159.5
2023-12-17T17:36:01.134Z,110.4
2023-12-17T17:38:00.778Z,154.7
2023-12-17T17:40:00.903Z,152.7
2023-12-17T17:42:01.431Z,137.1
2023-12-17T17:44:00.846Z,168.0
2023-12-17T17:46:00.773Z,131.7
2023-12-17T17:48:01.292Z,115.4
2023-12-17T17:50:00.857Z,181.7
2023-12-17T17:52:00.880Z,76.8
2023-12-17T17:54:00.879Z,151.7
2023-12-17T17:56:03.478Z,88.6
2023-12-17T17:58:00.808Z,141.8
2023-12-17T18:00:01.106Z,136.0
2023-12-17T18:02:00.772Z,91.6
2023-12-17T18:04:01.074Z,44.0
2023-12-17T18:06:01.024Z,52.9
2023-12-17T18:08:01.678Z,77.1
2023-12-17T18:10:00.942Z,101.5
2023-12-17T18:12:00.993Z,91.8
2023-12-17T18:14:00.763Z,79.4
2023-12-17T18:16:00.818Z,91.3
2023-12-17T18:18:01.444Z,71.3
2023-12-17T18:20:00.991Z,83.9
2023-12-17T18:22:00.937Z,75.8
2023-12-17T18:24:00.954Z,71.0
2023-12-17T18:26:00.957Z,138.8
2023-12-17T18:28:00.938Z,94.8
2023-12-17T18:30:01.010Z,62.7
2023-12-17T18:32:00.861Z,75.9
2023-12-17T18:34:01.020Z,106.1
2023-12-17T18:36:00.911Z,75.4
2023-12-17T18:38:00.755Z,67.3
2023-12-17T18:40:00.941Z,105.6
2023-12-17T18:42:00.980Z,92.5
2023-12-17T18:44:00.787Z,66.9
2023-12-17T18:46:00.792Z,79.7
2023-12-17T18:48:01.168Z,60.0
2023-12-17T18:50:01.403Z,56.8
2023-12-17T18:52:01.006Z,47.3
2023-12-17T18:54:01.004Z,42.5
2023-12-17T18:56:00.786Z,55.3
2023-12-17T18:58:00.802Z,59.2
2023-12-17T19:00:01.047Z,48.6
2023-12-17T19:02:00.781Z,95.4
2023-12-17T19:04:00.960Z,74.0
2023-12-17T19:06:00.891Z,42.9
2023-12-17T19:08:00.770Z,27.3
2023-12-17T19:10:00.914Z,55.4
2023-12-17T19:12:00.845Z,129.3
2023-12-17T19:14:01.233Z,141.6
2023-12-17T19:16:00.817Z,99.5
2023-12-17T19:18:01.073Z,81.3
2023-12-17T19:20:00.790Z,73.2
2023-12-17T19:22:00.833Z,76.8
2023-12-17T19:24:01.036Z,59.3
2023-12-17T19:26:00.976Z,28.8
2023-12-17T19:28:02.044Z,56.4
2023-12-17T19:30:00.997Z,52.1
2023-12-17T19:32:01.355Z,34.2
2023-12-17T19:34:02.000Z,32.1
2023-12-17T19:36:00.783Z,41.9
2023-12-17T19:38:00.901Z,45.7
2023-12-17T19:40:00.804Z,24.4
2023-12-17T19:42:00.810Z,31.8
2023-12-17T19:44:01.017Z,72.7
2023-12-17T19:46:00.878Z,40.2
2023-12-17T19:48:00.898Z,31.0
2023-12-17T19:50:00.898Z,43.7
2023-12-17T19:52:01.216Z,74.4
2023-12-17T19:54:00.889Z,88.6
2023-12-17T19:56:00.834Z,79.1
2023-12-17T19:58:00.779Z,33.5
2023-12-17T20:00:00.968Z,25.9
2023-12-17T20:02:00.781Z,20.9
2023-12-17T20:04:00.955Z,44.0
2023-12-17T20:06:00.894Z,67.3
2023-12-17T20:08:00.813Z,85.6
2023-12-17T20:10:01.088Z,47.0
2023-12-17T20:12:00.847Z,93.7
2023-12-17T20:14:00.908Z,39.8
2023-12-17T20:16:01.314Z,99.1
2023-12-17T20:18:01.116Z,250.4
2023-12-17T20:20:00.803Z,128.8
2023-12-17T20:22:00.846Z,92.5
2023-12-17T20:24:00.850Z,142.9
2023-12-17T20:26:00.764Z,82.4
2023-12-17T20:28:01.005Z,71.5
2023-12-17T20:30:00.866Z,70.9
2023-12-17T20:32:00.756Z,87.1
2023-12-17T20:34:01.006Z,92.5
2023-12-17T20:36:00.919Z,128.0
2023-12-17T20:38:00.796Z,80.0
2023-12-17T20:40:01.022Z,100.3
2023-12-17T20:42:01.002Z,105.6
2023-12-17T20:44:01.029Z,114.1
2023-12-17T20:46:01.290Z,64.2
2023-12-17T20:48:04.054Z,93.6
2023-12-17T20:50:00.958Z,80.5
2023-12-17T20:52:01.022Z,146.6
2023-12-17T20:54:01.504Z,141.8
2023-12-17T20:56:00.981Z,125.0
2023-12-17T20:58:01.090Z,94.8
2023-12-17T21:00:01.034Z,65.9
2023-12-17T21:02:00.810Z,85.0
2023-12-17T21:04:02.501Z,84.0
2023-12-17T21:06:00.956Z,102.2
2023-12-17T21:08:01.430Z,73.2
2023-12-17T21:10:00.821Z,62.7
2023-12-17T21:12:02.099Z,79.3
2023-12-17T21:14:00.898Z,92.7
2023-12-17T21:16:00.829Z,61.6
2023-12-17T21:18:01.087Z,85.4
2023-12-17T21:20:00.770Z,79.4
2023-12-17T21:22:01.038Z,74.5
2023-12-17T21:24:00.911Z,80.7
2023-12-17T21:26:00.800Z,79.7
2023-12-17T21:28:01.773Z,63.8
2023-12-17T21:30:01.124Z,74.8
2023-12-17T21:32:00.862Z,91.4
2023-12-17T21:34:01.268Z,79.8
2023-12-17T21:36:00.822Z,77.4
2023-12-17T21:38:00.764Z,99.0
2023-12-17T21:40:01.236Z,40.2
2023-12-17T21:42:00.830Z,77.9
2023-12-17T21:44:00.865Z,23.4
2023-12-17T21:46:00.889Z,69.1
2023-12-17T21:48:01.325Z,72.2
2023-12-17T21:50:00.928Z,25.6
2023-12-17T21:52:04.694Z,39.1
2023-12-17T21:54:00.860Z,42.6
2023-12-17T21:56:01.019Z,53.4
2023-12-17T21:58:01.158Z,53.2
2023-12-17T22:00:00.860Z,68.0
2023-12-17T22:02:00.777Z,32.8
2023-12-17T22:04:00.865Z,57.1
2023-12-17T22:06:01.156Z,40.2
2023-12-17T22:08:00.811Z,45.9
2023-12-17T22:10:00.822Z,38.4
2023-12-17T22:12:00.925Z,49.0
2023-12-17T22:14:00.925Z,52.5
2023-12-17T22:16:00.838Z,56.3
2023-12-17T22:18:01.238Z,43.0
2023-12-17T22:20:00.806Z,35.8
2023-12-17T22:22:00.957Z,66.0
2023-12-17T22:24:01.013Z,66.2
2023-12-17T22:26:00.792Z,58.9
2023-12-17T22:28:00.966Z,88.8
2023-12-17T22:30:01.111Z,72.0
2023-12-17T22:32:01.059Z,29.9
2023-12-17T22:34:00.912Z,60.7
2023-12-17T22:36:00.949Z,41.3
2023-12-17T22:38:00.812Z,109.1
2023-12-17T22:40:00.969Z,45.8
2023-12-17T22:42:01.032Z,58.9
2023-12-17T22:44:01.146Z,43.7
2023-12-17T22:46:01.153Z,52.4
2023-12-17T22:48:00.941Z,54.1
2023-12-17T22:50:00.942Z,58.1
2023-12-17T22:52:00.876Z,54.7
2023-12-17T22:54:00.827Z,38.4
2023-12-17T22:56:01.064Z,73.5
2023-12-17T22:58:00.852Z,87.2
2023-12-17T23:00:00.940Z,70.6
2023-12-17T23:02:01.716Z,74.6
2023-12-17T23:04:00.903Z,54.4
2023-12-17T23:06:00.905Z,60.4
2023-12-17T23:08:01.080Z,67.1
2023-12-17T23:10:00.977Z,66.6
2023-12-17T23:12:00.818Z,106.4
2023-12-17T23:14:00.976Z,87.9
2023-12-17T23:16:01.118Z,105.4
2023-12-17T23:18:00.927Z,84.8
2023-12-17T23:20:00.780Z,79.9
2023-12-17T23:22:00.987Z,90.2
2023-12-17T23:24:00.896Z,116.6
2023-12-17T23:26:00.966Z,139.4
2023-12-17T23:28:00.785Z,117.3
2023-12-17T23:30:00.829Z,142.3
2023-12-17T23:32:00.792Z,148.7
2023-12-17T23:34:00.999Z,115.4
2023-12-17T23:36:00.841Z,150.5
2023-12-17T23:38:01.137Z,87.2
2023-12-17T23:40:01.524Z,139.2
2023-12-17T23:42:00.877Z,113.8
2023-12-17T23:44:00.788Z,82.0
2023-12-17T23:46:01.429Z,123.7
2023-12-17T23:48:01.025Z,178.2
2023-12-17T23:50:00.910Z,142.4
2023-12-17T23:52:01.055Z,107.2
2023-12-17T23:54:00.898Z,113.9
2023-12-17T23:56:00.791Z,133.5
2023-12-17T23:58:00.879Z,224.6
